Portada
METAR-TAF:

METAR-TAF

Aeropuertos :

Aeropuerto de Gerona

Gerona, España

latitud: 41-54N, longitud: 002-46E, altitud: 143 m

Observación

El informe se hizo hace 29 minutos, a las 22:00 UTC
Viento 2 kt con dirección variable
Temperatura 14°C
Humedad 82%
Presión 1017 hPa
Visibilidad 10 km o más
sin nubes por debajo de 1500 m y sin presencia de cumulonimbus.

METAR: LEGE 162200Z VRB02KT CAVOK 14/11 Q1017

Hora: 00:29 (22:29 UTC)

Pronóstico

El informe se hizo hace 3 horas y 13 minutos, a las 19:16 UTC
Pronóstico válido del 16 a las 19 UTC al 17 a las 18 UTC
Viento 4 kt con dirección variable
Visibilidad 10 km o más
Nubes dispersas a una altura de 2000 ft
Evolucionando progresivamente
del 17 a las 08 UTC al 17 a las 10 UTC
Viento 15 kt del sur

TAF: LEGE 161916Z 1619/1718 VRB04KT 9999 SCT020 TX27/1713Z TN10/1706Z BECMG 1708/1710 19015KT

Observaciones y pronósticos meteorológicos de más de 4000 aeropuertos (mensajes METAR y TAF).

Los puntos amarillos y rojos representan las estaciones disponibles.

Ponga el ratón en el punto deseado para ver el nombre de la estación.

Haga clic para ver las observaciones y los pronósticos meteorológicos.

Para cambiar el mapa : haga clic en los botones verdes con una cruz de color negro para hacer un zoom, en el botón verde con un guión para alejar o en las flechas verdes para mapas adyacentes.


METAR-TAF: